createdAt,value
2019-05-20T00:00:54.256Z,43.33
2019-05-20T00:03:25.611Z,41.97
2019-05-20T00:05:56.711Z,41.93
2019-05-20T00:08:28.030Z,39.20
2019-05-20T00:10:59.424Z,36.83
2019-05-20T00:13:31.206Z,37.97
2019-05-20T00:16:02.267Z,38.27
2019-05-20T00:18:33.316Z,36.90
2019-05-20T00:21:04.343Z,36.97
2019-05-20T00:23:35.332Z,34.10
2019-05-20T00:26:06.809Z,35.37
2019-05-20T00:28:37.886Z,31.27
2019-05-20T00:31:10.248Z,31.47
2019-05-20T00:33:41.226Z,32.23
2019-05-20T00:36:12.224Z,32.07
2019-05-20T00:38:48.234Z,31.10
2019-05-20T00:41:19.225Z,31.07
2019-05-20T00:43:50.338Z,33.13
2019-05-20T00:46:21.302Z,31.83
2019-05-20T00:48:52.347Z,31.60
2019-05-20T00:51:23.317Z,29.33
2019-05-20T00:53:54.305Z,27.60
2019-05-20T00:56:25.848Z,27.80
2019-05-20T00:58:58.463Z,26.73
2019-05-20T01:01:30.243Z,28.30
2019-05-20T01:04:01.260Z,27.00
2019-05-20T01:06:32.238Z,26.17
2019-05-20T01:09:04.283Z,23.57
2019-05-20T01:11:35.275Z,24.57
2019-05-20T01:14:06.782Z,23.40
2019-05-20T01:16:37.810Z,23.63
2019-05-20T01:19:08.845Z,22.87
2019-05-20T01:21:40.573Z,22.60
2019-05-20T01:24:11.685Z,22.00
2019-05-20T01:26:43.743Z,21.37
2019-05-20T01:29:14.691Z,22.00
2019-05-20T01:31:45.701Z,21.13
2019-05-20T01:34:16.718Z,19.73
2019-05-20T01:36:48.515Z,18.80
2019-05-20T01:39:19.586Z,19.20
2019-05-20T01:41:51.050Z,18.57
2019-05-20T01:44:22.341Z,18.63
2019-05-20T01:46:53.665Z,17.73
2019-05-20T01:49:24.713Z,16.40
2019-05-20T01:51:56.403Z,17.43
2019-05-20T01:54:27.478Z,16.43
2019-05-20T01:56:58.586Z,16.43
2019-05-20T01:59:30.179Z,15.20
2019-05-20T02:02:01.619Z,15.10
2019-05-20T02:04:32.633Z,15.43
2019-05-20T02:07:03.622Z,15.27
2019-05-20T02:09:34.751Z,14.70
2019-05-20T02:12:05.740Z,15.13
2019-05-20T02:14:42.160Z,14.87
2019-05-20T02:17:15.600Z,15.17
2019-05-20T02:19:46.678Z,15.23
2019-05-20T02:22:18.054Z,14.60
2019-05-20T02:24:49.297Z,14.87
2019-05-20T02:27:20.532Z,13.60
2019-05-20T02:29:51.573Z,15.17
2019-05-20T02:32:22.577Z,15.13
2019-05-20T02:34:53.564Z,15.47
2019-05-20T02:37:24.533Z,14.97
2019-05-20T02:39:55.504Z,15.47
2019-05-20T02:42:26.545Z,16.53
2019-05-20T02:44:57.901Z,16.77
2019-05-20T02:47:28.972Z,16.83
2019-05-20T02:49:59.940Z,17.13
2019-05-20T02:52:31.296Z,17.07
2019-05-20T02:55:02.616Z,17.60
2019-05-20T02:57:34.340Z,17.67
2019-05-20T03:00:06.036Z,17.73
2019-05-20T03:02:37.414Z,18.43
2019-05-20T03:05:08.822Z,18.90
2019-05-20T03:07:40.119Z,19.20
2019-05-20T03:10:11.235Z,19.47
2019-05-20T03:12:42.294Z,18.53
2019-05-20T03:15:13.447Z,18.87
2019-05-20T03:17:45.075Z,19.70
2019-05-20T03:20:16.496Z,20.33
2019-05-20T03:22:47.557Z,17.80
2019-05-20T03:25:18.863Z,19.23
2019-05-20T03:27:49.906Z,19.27
2019-05-20T03:30:21.218Z,19.37
2019-05-20T03:32:52.696Z,18.43
2019-05-20T03:35:23.953Z,17.73
2019-05-20T03:37:54.955Z,18.37
2019-05-20T03:40:26.232Z,17.70
2019-05-20T03:42:57.361Z,17.77
2019-05-20T03:45:28.393Z,17.60
2019-05-20T03:47:59.402Z,17.50
2019-05-20T03:50:30.349Z,17.27
2019-05-20T03:53:01.355Z,17.27
2019-05-20T03:55:32.403Z,16.20
2019-05-20T03:58:03.461Z,17.77
2019-05-20T04:00:44.218Z,16.87
2019-05-20T04:03:15.808Z,16.77
2019-05-20T04:05:47.216Z,17.77
2019-05-20T04:08:18.611Z,17.50
2019-05-20T04:10:49.880Z,17.00
2019-05-20T04:13:20.982Z,18.00
2019-05-20T04:15:52.070Z,16.37
2019-05-20T04:18:23.726Z,16.83
2019-05-20T04:20:55.017Z,14.93
2019-05-20T04:23:26.421Z,16.13
2019-05-20T04:25:57.493Z,16.13
2019-05-20T04:28:29.131Z,16.93
2019-05-20T04:31:00.131Z,17.13
2019-05-20T04:33:31.124Z,17.83
2019-05-20T04:36:02.185Z,17.50
2019-05-20T04:38:33.154Z,17.43
2019-05-20T04:41:04.211Z,17.80
2019-05-20T04:43:35.312Z,17.43
2019-05-20T04:46:06.940Z,18.03
2019-05-20T04:48:37.969Z,19.53
2019-05-20T04:51:09.217Z,19.53
2019-05-20T04:53:40.232Z,18.73
2019-05-20T04:56:11.193Z,19.70
2019-05-20T04:58:42.503Z,19.93
2019-05-20T05:01:13.460Z,20.37
2019-05-20T05:03:44.757Z,19.50
2019-05-20T05:06:15.767Z,19.60
2019-05-20T05:08:46.764Z,19.03
2019-05-20T05:11:18.478Z,20.23
2019-05-20T05:13:49.434Z,19.80
2019-05-20T05:16:20.532Z,18.60
2019-05-20T05:18:51.831Z,19.00
2019-05-20T05:21:22.819Z,20.37
2019-05-20T05:23:59.323Z,20.20
2019-05-20T05:26:27.218Z,21.07
2019-05-20T05:28:58.327Z,19.23
2019-05-20T05:31:29.671Z,20.17
2019-05-20T05:34:00.724Z,19.27
2019-05-20T05:36:32.115Z,18.77
2019-05-20T05:39:04.017Z,21.07
2019-05-20T05:41:35.146Z,20.50
2019-05-20T05:44:06.566Z,20.47
2019-05-20T05:46:37.547Z,20.80
2019-05-20T05:49:08.647Z,21.43
2019-05-20T05:51:39.650Z,20.70
2019-05-20T05:54:10.626Z,20.17
2019-05-20T05:56:41.645Z,22.10
2019-05-20T05:59:13.017Z,20.67
2019-05-20T06:01:44.101Z,19.50
2019-05-20T06:04:15.142Z,20.77
2019-05-20T06:06:46.524Z,23.33
2019-05-20T06:09:17.931Z,21.07
2019-05-20T06:11:49.018Z,20.53
2019-05-20T06:14:21.977Z,20.17
2019-05-20T06:16:53.382Z,19.07
2019-05-20T06:19:24.454Z,18.27
2019-05-20T06:21:55.557Z,18.43
2019-05-20T06:24:26.625Z,17.30
2019-05-20T06:26:57.628Z,16.87
2019-05-20T06:29:29.007Z,17.37
2019-05-20T06:32:00.358Z,18.13
2019-05-20T06:34:31.775Z,19.37
2019-05-20T06:37:04.586Z,18.13
2019-05-20T06:39:35.850Z,18.60
2019-05-20T06:42:06.988Z,17.90
2019-05-20T06:44:51.751Z,18.00
2019-05-20T06:47:11.036Z,18.03
2019-05-20T06:49:42.074Z,17.70
2019-05-20T06:52:13.325Z,17.57
2019-05-20T06:54:44.288Z,18.90
2019-05-20T06:57:15.794Z,17.40
2019-05-20T06:59:46.865Z,17.27
2019-05-20T07:05:38.414Z,17.17
2019-05-20T07:08:09.503Z,17.00
2019-05-20T07:10:40.512Z,17.00
2019-05-20T07:13:11.603Z,16.77
2019-05-20T07:15:42.983Z,16.37
2019-05-20T07:18:15.145Z,17.47
2019-05-20T07:20:46.266Z,17.30
2019-05-20T07:23:17.254Z,16.67
2019-05-20T07:25:48.536Z,16.10
2019-05-20T07:28:19.682Z,15.07
2019-05-20T07:30:51.133Z,15.40
2019-05-20T07:33:22.561Z,15.27
2019-05-20T07:35:53.627Z,15.73
2019-05-20T07:38:24.582Z,14.93
2019-05-20T07:40:55.586Z,15.37
2019-05-20T07:43:27.088Z,17.57
2019-05-20T07:45:58.392Z,18.13
2019-05-20T07:48:29.673Z,18.13
2019-05-20T07:51:02.122Z,18.03
2019-05-20T07:53:33.999Z,20.47
2019-05-20T07:56:09.190Z,19.47
2019-05-20T07:58:43.504Z,26.63
2019-05-20T08:01:14.540Z,25.43
2019-05-20T08:03:45.630Z,24.23
2019-05-20T08:06:16.626Z,24.70
2019-05-20T08:08:47.895Z,25.13
2019-05-20T08:11:19.169Z,26.03
2019-05-20T08:13:50.244Z,26.03
2019-05-20T08:16:21.834Z,25.97
2019-05-20T08:18:53.657Z,24.90
2019-05-20T08:21:24.971Z,25.17
2019-05-20T08:23:55.991Z,26.90
2019-05-20T08:26:27.083Z,25.57
2019-05-20T08:28:58.041Z,26.27
2019-05-20T08:31:29.048Z,26.00
2019-05-20T08:34:00.095Z,26.77
2019-05-20T08:36:31.304Z,27.40
2019-05-20T08:39:02.683Z,27.80
2019-05-20T08:41:35.887Z,26.43
2019-05-20T08:44:07.378Z,25.93
2019-05-20T08:46:38.370Z,25.10
2019-05-20T08:49:11.070Z,25.23
2019-05-20T08:51:41.954Z,25.50
2019-05-20T08:54:12.926Z,25.03
2019-05-20T08:56:43.963Z,26.57
2019-05-20T08:59:14.951Z,24.23
2019-05-20T09:01:46.530Z,24.43
2019-05-20T09:04:17.552Z,25.63
2019-05-20T09:06:48.892Z,26.73
2019-05-20T09:09:19.979Z,25.57
2019-05-20T09:11:50.934Z,26.97
2019-05-20T09:14:21.986Z,27.70
2019-05-20T09:16:53.059Z,29.03
2019-05-20T09:19:24.249Z,28.83
2019-05-20T09:21:55.530Z,28.07
2019-05-20T09:24:27.000Z,27.83
2019-05-20T09:26:58.116Z,27.27
2019-05-20T09:29:29.769Z,27.10
2019-05-20T09:32:01.086Z,27.30
2019-05-20T09:34:32.197Z,27.77
2019-05-20T09:37:03.249Z,29.10
2019-05-20T09:39:34.788Z,27.10
2019-05-20T09:42:05.818Z,27.47
2019-05-20T09:44:36.855Z,28.60
2019-05-20T09:47:07.777Z,25.90
2019-05-20T09:49:38.923Z,25.17
2019-05-20T09:52:09.989Z,22.87
2019-05-20T09:54:45.450Z,23.80
2019-05-20T09:57:14.575Z,22.90
2019-05-20T09:59:45.574Z,22.83
2019-05-20T10:02:16.522Z,20.60
2019-05-20T10:04:47.498Z,21.63
2019-05-20T10:07:18.411Z,20.20
2019-05-20T10:09:49.335Z,21.70
2019-05-20T10:12:20.355Z,22.47
2019-05-20T10:14:52.844Z,21.33
2019-05-20T10:17:24.290Z,20.30
2019-05-20T10:19:55.539Z,19.97
2019-05-20T10:22:26.934Z,18.03
2019-05-20T10:24:57.866Z,17.77
2019-05-20T10:27:28.908Z,16.60
2019-05-20T10:29:59.895Z,17.90
2019-05-20T10:32:30.891Z,18.63
2019-05-20T10:35:02.990Z,18.63
2019-05-20T10:37:34.174Z,20.07
2019-05-20T10:40:05.508Z,19.57
2019-05-20T10:42:36.512Z,19.50
2019-05-20T10:45:08.091Z,16.63
2019-05-20T10:47:39.459Z,15.70
2019-05-20T10:50:10.496Z,15.43
2019-05-20T10:52:41.507Z,14.13
2019-05-20T10:55:12.613Z,14.33
2019-05-20T10:57:44.080Z,13.77
2019-05-20T11:00:16.690Z,13.27
2019-05-20T11:02:47.796Z,13.67
2019-05-20T11:05:20.220Z,14.40
2019-05-20T11:07:51.366Z,14.43
2019-05-20T11:10:23.921Z,13.93
2019-05-20T11:12:54.925Z,13.93
2019-05-20T11:15:26.131Z,13.07
2019-05-20T11:17:57.868Z,12.40
2019-05-20T11:20:29.164Z,12.27
2019-05-20T11:23:01.211Z,13.00
2019-05-20T11:25:32.852Z,12.93
2019-05-20T11:28:04.251Z,13.40
2019-05-20T11:30:35.279Z,13.67
2019-05-20T11:33:06.268Z,13.60
2019-05-20T11:35:38.349Z,14.03
2019-05-20T11:38:09.667Z,13.80
2019-05-20T11:40:41.005Z,12.70
2019-05-20T11:43:11.954Z,13.30
2019-05-20T11:45:43.076Z,13.40
2019-05-20T11:48:13.994Z,14.20
2019-05-20T11:50:45.441Z,14.00
2019-05-20T11:53:16.436Z,13.53
2019-05-20T11:55:48.329Z,14.30
2019-05-20T11:58:19.615Z,16.23
2019-05-20T12:00:50.655Z,19.97
2019-05-20T12:03:21.998Z,22.27
2019-05-20T12:05:53.622Z,24.67
2019-05-20T12:08:24.641Z,26.37
2019-05-20T12:10:55.874Z,25.97
2019-05-20T12:13:26.893Z,26.50
2019-05-20T12:15:58.579Z,17.70
2019-05-20T12:18:29.520Z,18.13
2019-05-20T12:21:01.012Z,17.97
2019-05-20T12:23:32.122Z,17.23
2019-05-20T12:26:04.045Z,15.97
2019-05-20T12:28:35.011Z,17.67
2019-05-20T12:31:06.088Z,17.50
2019-05-20T12:33:37.024Z,16.80
2019-05-20T12:36:08.998Z,18.07
2019-05-20T12:38:40.614Z,17.67
2019-05-20T12:41:11.818Z,18.00
2019-05-20T12:43:44.952Z,18.67
2019-05-20T12:46:15.847Z,19.13
2019-05-20T12:48:46.975Z,18.83
2019-05-20T12:51:18.013Z,19.90
2019-05-20T12:53:49.038Z,19.00
2019-05-20T12:56:20.128Z,23.53
2019-05-20T12:58:51.415Z,25.93
2019-05-20T13:01:22.383Z,26.57
2019-05-20T13:03:53.653Z,25.37
2019-05-20T13:06:25.011Z,24.43
2019-05-20T13:08:56.210Z,21.83
2019-05-20T13:11:27.142Z,20.10
2019-05-20T13:13:58.161Z,17.10
2019-05-20T13:16:29.168Z,15.70
2019-05-20T13:19:00.112Z,15.07
2019-05-20T13:21:31.173Z,15.37
2019-05-20T13:24:02.195Z,14.93
2019-05-20T13:26:33.187Z,13.43
2019-05-20T13:29:04.209Z,14.50
2019-05-20T13:31:35.396Z,15.30
2019-05-20T13:34:06.383Z,16.30
2019-05-20T13:36:37.317Z,15.43
2019-05-20T13:39:08.821Z,15.63
2019-05-20T13:41:39.752Z,16.70
2019-05-20T13:44:11.109Z,16.53
2019-05-20T13:46:42.109Z,15.43
2019-05-20T13:49:14.139Z,16.63
2019-05-20T13:51:45.463Z,14.17
2019-05-20T13:54:16.446Z,14.10
2019-05-20T13:56:47.518Z,13.50
2019-05-20T13:59:18.518Z,13.13
2019-05-20T14:01:49.603Z,12.80
2019-05-20T14:04:21.000Z,13.77
2019-05-20T14:06:52.031Z,13.00
2019-05-20T14:09:23.152Z,13.77
2019-05-20T14:11:54.450Z,12.50
2019-05-20T14:14:25.377Z,11.67
2019-05-20T14:16:56.580Z,12.17
2019-05-20T14:19:27.504Z,11.97
2019-05-20T14:21:59.242Z,13.13
2019-05-20T14:24:31.051Z,12.70
2019-05-20T14:27:03.400Z,13.37
2019-05-20T14:29:35.096Z,13.33
2019-05-20T14:32:06.078Z,13.40
2019-05-20T14:34:37.221Z,13.80
2019-05-20T14:37:08.216Z,13.57
2019-05-20T14:39:39.215Z,15.00
2019-05-20T14:42:10.904Z,15.07
2019-05-20T14:44:42.028Z,15.80
2019-05-20T14:47:13.317Z,16.00
2019-05-20T14:49:44.430Z,15.77
2019-05-20T14:52:15.460Z,16.20
2019-05-20T14:54:46.423Z,15.90
2019-05-20T14:57:18.591Z,16.27
2019-05-20T14:59:49.810Z,16.00
2019-05-20T15:02:20.848Z,15.60
2019-05-20T15:04:51.776Z,15.83
2019-05-20T15:07:30.359Z,15.80
2019-05-20T15:09:55.409Z,16.23
2019-05-20T15:12:26.455Z,15.63
2019-05-20T15:14:57.400Z,16.97
2019-05-20T15:17:28.373Z,19.40
2019-05-20T15:19:59.717Z,20.80
2019-05-20T15:22:31.803Z,22.13
2019-05-20T15:25:03.226Z,21.80
2019-05-20T15:27:34.319Z,21.53
2019-05-20T15:30:06.292Z,22.70
2019-05-20T15:32:37.293Z,21.90
2019-05-20T15:35:08.314Z,22.43
2019-05-20T15:37:40.310Z,22.40
2019-05-20T15:40:11.960Z,20.37
2019-05-20T15:42:43.236Z,21.07
2019-05-20T15:45:14.711Z,21.73
2019-05-20T15:47:45.731Z,21.97
2019-05-20T15:50:17.193Z,23.30
2019-05-20T15:52:49.005Z,22.70
2019-05-20T15:55:20.513Z,24.97
2019-05-20T15:57:51.455Z,23.87
2019-05-20T16:00:22.933Z,25.67
2019-05-20T16:02:54.024Z,25.37
2019-05-20T16:05:25.051Z,24.50
2019-05-20T16:07:56.089Z,23.47
2019-05-20T16:10:27.183Z,24.57
2019-05-20T16:12:58.797Z,23.87
2019-05-20T16:15:29.808Z,23.90
2019-05-20T16:18:01.226Z,24.93
2019-05-20T16:20:32.518Z,24.53
2019-05-20T16:23:03.631Z,25.43
2019-05-20T16:25:34.723Z,23.47
2019-05-20T16:28:06.201Z,23.57
2019-05-20T16:30:37.278Z,23.10
2019-05-20T16:33:08.683Z,22.17
2019-05-20T16:35:39.809Z,22.70
2019-05-20T16:38:10.821Z,22.93
2019-05-20T16:40:41.826Z,22.60
2019-05-20T16:43:12.794Z,22.33
2019-05-20T16:45:43.817Z,21.00
2019-05-20T16:48:14.809Z,19.53
2019-05-20T16:50:45.826Z,19.73
2019-05-20T16:53:17.306Z,20.40
2019-05-20T16:55:48.397Z,20.80
2019-05-20T16:58:19.377Z,21.53
2019-05-20T17:00:50.385Z,20.87
2019-05-20T17:03:21.401Z,18.77
2019-05-20T17:05:52.479Z,19.03
2019-05-20T17:08:23.605Z,18.60
2019-05-20T17:10:55.565Z,19.23
2019-05-20T17:13:27.033Z,19.53
2019-05-20T17:15:58.117Z,18.97
2019-05-20T17:18:29.494Z,17.23
2019-05-20T17:21:00.824Z,17.30
2019-05-20T17:23:32.277Z,17.67
2019-05-20T17:26:03.230Z,17.03
2019-05-20T17:28:34.670Z,16.53
2019-05-20T17:31:05.785Z,17.63
2019-05-20T17:33:36.860Z,16.73
2019-05-20T17:36:08.023Z,17.40
2019-05-20T17:38:39.522Z,17.27
2019-05-20T17:41:11.438Z,17.87
2019-05-20T17:43:42.491Z,17.90
2019-05-20T17:46:13.861Z,17.90
2019-05-20T17:48:45.549Z,18.67
2019-05-20T17:51:16.796Z,20.97
2019-05-20T17:53:47.819Z,20.53
2019-05-20T17:56:19.147Z,23.03
2019-05-20T17:58:51.149Z,22.43
2019-05-20T18:01:22.607Z,22.80
2019-05-20T18:03:53.749Z,21.27
2019-05-20T18:06:25.198Z,21.63
2019-05-20T18:08:57.915Z,21.57
2019-05-20T18:11:29.234Z,22.20
2019-05-20T18:14:00.528Z,22.53
2019-05-20T18:16:31.716Z,24.03
2019-05-20T18:19:02.772Z,25.80
2019-05-20T18:21:33.821Z,26.37
2019-05-20T18:24:04.988Z,26.07
2019-05-20T18:26:36.132Z,28.13
2019-05-20T18:29:07.554Z,28.43
2019-05-20T18:31:38.610Z,28.37
2019-05-20T18:34:09.731Z,27.37
2019-05-20T18:36:40.781Z,28.20
2019-05-20T18:39:12.033Z,27.70
2019-05-20T18:41:43.310Z,27.20
2019-05-20T18:44:14.293Z,28.53
2019-05-20T18:46:45.445Z,29.20
2019-05-20T18:49:16.937Z,29.70
2019-05-20T18:51:48.370Z,28.03
2019-05-20T18:54:19.534Z,29.57
2019-05-20T18:56:51.160Z,27.17
2019-05-20T18:59:22.172Z,25.80
2019-05-20T19:02:04.770Z,25.00
2019-05-20T19:04:26.491Z,23.47
2019-05-20T19:06:57.780Z,22.40
2019-05-20T19:09:28.836Z,22.97
2019-05-20T19:12:00.016Z,21.77
2019-05-20T19:14:31.121Z,22.47
2019-05-20T19:17:02.121Z,21.90
2019-05-20T19:19:34.359Z,22.53
2019-05-20T19:22:05.436Z,21.60
2019-05-20T19:24:36.876Z,21.53
2019-05-20T19:27:08.148Z,21.13
2019-05-20T19:29:39.187Z,22.63
2019-05-20T19:32:11.899Z,22.93
2019-05-20T19:34:43.382Z,21.67
2019-05-20T19:37:14.424Z,21.20
2019-05-20T19:39:45.565Z,21.37
2019-05-20T19:42:16.782Z,21.53
2019-05-20T19:44:47.924Z,22.37
2019-05-20T19:47:19.169Z,22.50
2019-05-20T19:49:50.244Z,21.70
2019-05-20T19:52:21.246Z,21.37
2019-05-20T19:58:08.236Z,20.17
2019-05-20T20:00:39.369Z,19.70
2019-05-20T20:03:10.433Z,19.73
2019-05-20T20:05:41.823Z,20.60
2019-05-20T20:08:13.404Z,21.37
2019-05-20T20:10:46.019Z,21.20
2019-05-20T20:13:16.987Z,21.97
2019-05-20T20:15:47.967Z,22.23
2019-05-20T20:18:19.356Z,22.97
2019-05-20T20:20:50.565Z,22.90
2019-05-20T20:23:22.429Z,23.60
2019-05-20T20:25:53.503Z,24.10
2019-05-20T20:28:24.660Z,24.53
2019-05-20T20:30:56.091Z,24.30
2019-05-20T20:33:27.627Z,23.80
2019-05-20T20:35:58.744Z,25.27
2019-05-20T20:38:30.258Z,25.57
2019-05-20T20:41:01.373Z,24.60
2019-05-20T20:43:32.629Z,25.57
2019-05-20T20:46:03.853Z,26.20
2019-05-20T20:48:34.980Z,25.00
2019-05-20T20:51:06.144Z,23.20
2019-05-20T20:53:37.224Z,22.60
2019-05-20T20:56:22.741Z,23.67
2019-05-20T20:58:41.172Z,25.47
2019-05-20T21:01:12.651Z,23.90
2019-05-20T21:03:43.940Z,25.33
2019-05-20T21:06:15.050Z,28.50
2019-05-20T21:08:46.067Z,26.80
2019-05-20T21:11:17.157Z,28.30
2019-05-20T21:13:48.199Z,28.67
2019-05-20T21:16:19.608Z,27.83
2019-05-20T21:18:51.084Z,28.00
2019-05-20T21:21:22.556Z,28.83
2019-05-20T21:23:53.690Z,28.00
2019-05-20T21:26:25.465Z,28.53
2019-05-20T21:28:56.531Z,29.27
2019-05-20T21:31:27.551Z,29.20
2019-05-20T21:33:58.699Z,29.20
2019-05-20T21:36:29.737Z,29.77
2019-05-20T21:39:01.277Z,30.97
2019-05-20T21:41:34.448Z,28.13
2019-05-20T21:44:05.871Z,28.53
2019-05-20T21:46:36.912Z,28.33
2019-05-20T21:49:08.220Z,27.80
2019-05-20T21:51:39.340Z,28.23
2019-05-20T21:54:10.294Z,26.37
2019-05-20T21:56:41.424Z,25.77
2019-05-20T21:59:12.401Z,22.83
2019-05-20T22:01:43.343Z,22.53
2019-05-20T22:04:14.419Z,21.63
2019-05-20T22:06:45.471Z,21.10
2019-05-20T22:09:16.511Z,21.73
2019-05-20T22:11:47.859Z,23.30
2019-05-20T22:14:19.267Z,23.93
2019-05-20T22:16:50.205Z,24.33
2019-05-20T22:19:21.280Z,23.37
2019-05-20T22:21:58.680Z,23.60
2019-05-20T22:24:29.756Z,23.87
2019-05-20T22:27:00.869Z,23.30
2019-05-20T22:29:32.456Z,23.40
2019-05-20T22:32:03.376Z,22.80
2019-05-20T22:34:34.688Z,22.33
2019-05-20T22:37:05.701Z,22.97
2019-05-20T22:39:37.204Z,23.90
2019-05-20T22:42:08.720Z,25.93
2019-05-20T22:44:39.935Z,25.30
2019-05-20T22:47:10.962Z,25.73
2019-05-20T22:49:42.092Z,24.53
2019-05-20T22:52:13.926Z,25.33
2019-05-20T22:54:45.157Z,26.37
2019-05-20T22:57:16.267Z,25.33
2019-05-20T22:59:47.358Z,23.50
2019-05-20T23:02:18.692Z,25.13
2019-05-20T23:04:49.899Z,25.70
2019-05-20T23:07:20.937Z,26.70
2019-05-20T23:09:52.229Z,24.60
2019-05-20T23:12:23.574Z,25.50
2019-05-20T23:14:54.486Z,26.50
2019-05-20T23:17:25.488Z,25.40
2019-05-20T23:19:57.252Z,26.67
2019-05-20T23:22:28.264Z,25.70
2019-05-20T23:24:59.612Z,25.73
2019-05-20T23:27:30.627Z,25.37
2019-05-20T23:30:01.566Z,23.87
2019-05-20T23:32:34.065Z,24.57
2019-05-20T23:35:06.846Z,23.77
2019-05-20T23:37:38.032Z,24.67
2019-05-20T23:40:10.056Z,25.27
2019-05-20T23:42:41.076Z,24.63
2019-05-20T23:45:12.293Z,25.30
2019-05-20T23:47:43.676Z,24.27
2019-05-20T23:50:15.148Z,22.80
2019-05-20T23:52:46.471Z,22.60
2019-05-20T23:55:17.584Z,22.27
2019-05-20T23:57:48.601Z,21.50
